Time;durP1;ratioP1;P1;durP2;ratioP2;P2;SDS_P1;SDS_P2;PMS_P1;PMS_P2;Temp;Humidity;BMP_temperature;BMP_pressure;BME280_temperature;BME280_humidity;BME280_pressure;Samples;Min_cycle;Max_cycle;Signal;HPM_P1;HPM_P2
2022/06/04 00:00:02;;;;;;;14.93;9.50;;;;;;;;;;7333388;19;154084;-16
2022/06/04 00:02:42;;;;;;;12.60;8.57;;;;;;;;;;7332650;19;153550;-16
2022/06/04 00:05:16;;;;;;;16.05;9.85;;;;;;;;;;7331227;19;161813;-17
2022/06/04 00:07:47;;;;;;;13.98;8.75;;;;;;;;;;7332175;19;162884;-16
2022/06/04 00:16:01;;;;;;;14.38;8.93;;;;;;;;;;7328635;19;161997;-16
2022/06/04 00:18:35;;;;;;;14.07;9.45;;;;;;;;;;7332573;19;162351;-15
2022/06/04 00:21:07;;;;;;;15.38;9.48;;;;;;;;;;7332110;19;154171;-16
2022/06/04 00:23:38;;;;;;;12.40;8.20;;;;;;;;;;7332253;19;154149;-16
2022/06/04 00:26:13;;;;;;;15.15;9.05;;;;;;;;;;7332025;19;161900;-15
2022/06/04 00:28:47;;;;;;;17.38;9.15;;;;;;;;;;7331388;19;163092;-15
2022/06/04 00:31:20;;;;;;;12.65;9.15;;;;;;;;;;7332617;19;154141;-16
2022/06/04 00:33:51;;;;;;;12.35;8.30;;;;;;;;;;7331929;19;153595;-16
2022/06/04 00:36:23;;;;;;;14.38;9.52;;;;;;;;;;7330362;19;162058;-16
2022/06/04 00:38:54;;;;;;;13.18;8.40;;;;;;;;;;7336832;19;162466;-16
2022/06/04 00:41:32;;;;;;;11.90;7.82;;;;;;;;;;7338416;19;154481;-16
2022/06/04 00:44:56;;;;;;;11.77;8.30;;;;;;;;;;7338971;19;153582;-16
2022/06/04 00:47:30;;;;;;;12.10;7.43;;;;;;;;;;7338220;19;161818;-16
2022/06/04 00:50:02;;;;;;;13.75;8.98;;;;;;;;;;7337320;19;162446;-16
2022/06/04 00:52:33;;;;;;;12.38;8.15;;;;;;;;;;7335865;19;154221;-15
2022/06/04 00:55:08;;;;;;;10.90;7.65;;;;;;;;;;7338825;19;153776;-16
2022/06/04 00:58:06;;;;;;;13.20;8.10;;;;;;;;;;7337415;19;161827;-15
2022/06/04 01:00:46;;;;;;;12.82;8.40;;;;;;;;;;7337800;19;162440;-15
2022/06/04 01:03:32;;;;;;;11.25;7.97;;;;;;;;;;7338564;19;154006;-15
2022/06/04 01:06:36;;;;;;;10.77;7.90;;;;;;;;;;7338346;19;153811;-16
2022/06/04 01:09:31;;;;;;;11.40;7.80;;;;;;;;;;7337384;19;161928;-15
2022/06/04 01:12:17;;;;;;;11.65;8.20;;;;;;;;;;7337596;19;162572;-15
2022/06/04 01:15:10;;;;;;;10.23;7.43;;;;;;;;;;7337554;19;154388;-16
2022/06/04 01:18:01;;;;;;;10.82;7.72;;;;;;;;;;7337995;19;153674;-15
2022/06/04 01:20:41;;;;;;;18.40;7.90;;;;;;;;;;7336432;19;132773;-16
2022/06/04 01:23:42;;;;;;;12.10;8.32;;;;;;;;;;7337421;19;162652;-16
2022/06/04 01:26:43;;;;;;;11.55;8.18;;;;;;;;;;7336140;19;154387;-16
2022/06/04 01:29:17;;;;;;;10.20;7.63;;;;;;;;;;7337268;19;154030;-16
2022/06/04 01:31:52;;;;;;;11.30;7.68;;;;;;;;;;7334709;19;161835;-16
2022/06/04 01:34:31;;;;;;;12.35;7.72;;;;;;;;;;7337051;19;162534;-16
2022/06/04 01:37:08;;;;;;;10.88;7.10;;;;;;;;;;7337535;19;154211;-16
2022/06/04 01:42:37;;;;;;;9.68;7.60;;;;;;;;;;7336517;19;161816;-16
2022/06/04 01:45:12;;;;;;;11.20;7.35;;;;;;;;;;7335555;19;162737;-15
2022/06/04 01:47:48;;;;;;;9.98;7.10;;;;;;;;;;7336907;19;154250;-16
2022/06/04 01:50:22;;;;;;;11.15;7.57;;;;;;;;;;7334458;19;153470;-16
2022/06/04 01:52:55;;;;;;;10.05;7.55;;;;;;;;;;7334764;19;162169;-16
2022/06/04 01:55:33;;;;;;;9.95;6.82;;;;;;;;;;7336234;19;162392;-16
2022/06/04 01:58:09;;;;;;;9.85;7.38;;;;;;;;;;7336724;19;154436;-16
2022/06/04 02:00:43;;;;;;;11.38;7.53;;;;;;;;;;7335316;19;153563;-16
2022/06/04 02:03:19;;;;;;;9.48;7.18;;;;;;;;;;7335154;19;162121;-16
2022/06/04 02:05:53;;;;;;;10.20;7.43;;;;;;;;;;7334607;19;162168;-16
2022/06/04 02:08:29;;;;;;;9.52;7.28;;;;;;;;;;7336183;19;154075;-16
2022/06/04 02:11:06;;;;;;;8.82;6.13;;;;;;;;;;7334897;19;153667;-16
2022/06/04 02:13:40;;;;;;;10.90;7.55;;;;;;;;;;7335621;19;162177;-17
2022/06/04 02:16:18;;;;;;;8.43;6.45;;;;;;;;;;7335777;19;162323;-16
2022/06/04 02:18:50;;;;;;;9.73;6.85;;;;;;;;;;7335635;19;154323;-16
2022/06/04 02:21:21;;;;;;;10.00;6.85;;;;;;;;;;7336190;19;153471;-16
2022/06/04 02:23:53;;;;;;;9.52;6.18;;;;;;;;;;7333958;19;162053;-15
2022/06/04 02:26:26;;;;;;;8.68;6.72;;;;;;;;;;7335357;19;162731;-17
2022/06/04 02:29:02;;;;;;;8.98;6.88;;;;;;;;;;7336256;19;154198;-17
2022/06/04 02:31:41;;;;;;;8.05;6.18;;;;;;;;;;7334259;19;153648;-16
2022/06/04 02:34:21;;;;;;;9.27;6.78;;;;;;;;;;7334092;19;162135;-16
2022/06/04 02:37:04;;;;;;;7.53;5.93;;;;;;;;;;7335597;19;162360;-16
2022/06/04 02:39:41;;;;;;;7.63;6.80;;;;;;;;;;7335074;19;154249;-17
2022/06/04 02:42:26;;;;;;;8.25;6.63;;;;;;;;;;7335470;19;153487;-17
2022/06/04 02:45:05;;;;;;;9.43;6.28;;;;;;;;;;7334910;19;161963;-17
2022/06/04 02:47:42;;;;;;;9.80;7.15;;;;;;;;;;7335296;19;162531;-17
2022/06/04 02:50:19;;;;;;;9.45;7.05;;;;;;;;;;7335074;19;154074;-17
2022/06/04 02:52:52;;;;;;;8.50;6.45;;;;;;;;;;7331730;19;153545;-17
2022/06/04 02:55:27;;;;;;;8.25;6.43;;;;;;;;;;7334023;19;161790;-17
2022/06/04 02:58:03;;;;;;;7.45;5.82;;;;;;;;;;7334710;19;162457;-17
2022/06/04 03:00:38;;;;;;;8.52;6.82;;;;;;;;;;7333798;19;154132;-17
2022/06/04 03:03:13;;;;;;;8.80;6.75;;;;;;;;;;7331996;19;153765;-16
2022/06/04 03:05:54;;;;;;;7.40;6.22;;;;;;;;;;7330999;19;161596;-16
2022/06/04 03:08:26;;;;;;;9.93;6.45;;;;;;;;;;7331286;19;162438;-17
2022/06/04 03:10:57;;;;;;;8.00;6.27;;;;;;;;;;7331018;19;154089;-16
2022/06/04 03:13:29;;;;;;;9.32;7.00;;;;;;;;;;7329889;19;153562;-17
2022/06/04 03:16:04;;;;;;;8.38;6.68;;;;;;;;;;7330840;19;161793;-17
2022/06/04 03:18:36;;;;;;;7.40;5.85;;;;;;;;;;7330759;19;162403;-16
2022/06/04 03:21:07;;;;;;;8.48;6.40;;;;;;;;;;7331133;19;154033;-16
2022/06/04 03:23:38;;;;;;;9.70;6.80;;;;;;;;;;7331106;19;153574;-16
2022/06/04 03:26:10;;;;;;;7.25;5.78;;;;;;;;;;7330638;19;161937;-16
2022/06/04 03:28:41;;;;;;;7.82;6.50;;;;;;;;;;7330329;19;162458;-16
2022/06/04 03:31:16;;;;;;;8.57;6.43;;;;;;;;;;7330421;19;153998;-16
2022/06/04 03:33:47;;;;;;;8.02;6.22;;;;;;;;;;7330816;19;153851;-16
2022/06/04 03:36:19;;;;;;;8.07;6.28;;;;;;;;;;7330328;19;162226;-17
2022/06/04 03:38:50;;;;;;;8.30;6.07;;;;;;;;;;7329046;19;162499;-17
2022/06/04 03:41:21;;;;;;;8.52;6.32;;;;;;;;;;7330579;19;154257;-17
2022/06/04 03:43:52;;;;;;;8.25;5.80;;;;;;;;;;7330695;19;153287;-17
2022/06/04 03:46:30;;;;;;;7.80;5.82;;;;;;;;;;7330136;19;162108;-17
2022/06/04 03:49:01;;;;;;;9.82;6.25;;;;;;;;;;7330270;19;162350;-17
2022/06/04 03:51:32;;;;;;;7.90;5.97;;;;;;;;;;7329420;19;154044;-16
2022/06/04 03:54:03;;;;;;;6.50;5.28;;;;;;;;;;7332006;19;153744;-17
2022/06/04 03:56:35;;;;;;;8.15;5.60;;;;;;;;;;7329998;19;161989;-17
2022/06/04 03:59:06;;;;;;;7.50;5.85;;;;;;;;;;7329906;19;162740;-17
2022/06/04 04:01:41;;;;;;;7.57;5.75;;;;;;;;;;7330166;19;154200;-17
2022/06/04 04:04:14;;;;;;;8.20;5.63;;;;;;;;;;7329962;19;153702;-18
2022/06/04 04:06:45;;;;;;;6.78;5.72;;;;;;;;;;7329548;19;162038;-17
2022/06/04 04:09:19;;;;;;;7.47;5.60;;;;;;;;;;7329533;19;162352;-16
2022/06/04 04:11:51;;;;;;;6.53;5.25;;;;;;;;;;7328925;19;154117;-17
2022/06/04 04:14:22;;;;;;;8.25;5.93;;;;;;;;;;7328873;19;153657;-16
2022/06/04 04:16:55;;;;;;;6.97;5.30;;;;;;;;;;7329257;19;161923;-16
2022/06/04 04:19:28;;;;;;;6.85;6.07;;;;;;;;;;7329142;19;162470;-17
2022/06/04 04:21:59;;;;;;;6.50;5.90;;;;;;;;;;7328245;19;154162;-17
2022/06/04 04:24:31;;;;;;;7.05;5.88;;;;;;;;;;7329418;19;153300;-17
2022/06/04 04:27:02;;;;;;;6.45;5.82;;;;;;;;;;7327642;19;162143;-16
2022/06/04 04:29:33;;;;;;;6.78;5.38;;;;;;;;;;7328818;19;162341;-17
2022/06/04 04:32:08;;;;;;;6.63;5.13;;;;;;;;;;7328506;19;154371;-16
2022/06/04 04:34:39;;;;;;;7.35;5.53;;;;;;;;;;7329172;19;153479;-16
2022/06/04 04:37:10;;;;;;;7.13;5.53;;;;;;;;;;7328459;19;161885;-17
2022/06/04 04:39:42;;;;;;;6.68;5.20;;;;;;;;;;7327335;19;162428;-16
2022/06/04 04:42:13;;;;;;;6.85;5.55;;;;;;;;;;7328779;19;154019;-16
2022/06/04 04:44:44;;;;;;;6.72;5.45;;;;;;;;;;7328770;19;154099;-16
2022/06/04 04:47:18;;;;;;;6.90;6.20;;;;;;;;;;7328218;19;161779;-16
2022/06/04 04:49:49;;;;;;;6.07;5.38;;;;;;;;;;7327981;19;162528;-17
2022/06/04 04:52:21;;;;;;;6.05;5.03;;;;;;;;;;7326914;19;154245;-16
2022/06/04 04:54:53;;;;;;;6.88;5.20;;;;;;;;;;7328275;19;153625;-16
2022/06/04 04:57:24;;;;;;;5.63;5.03;;;;;;;;;;7332233;19;162187;-16
2022/06/04 04:59:55;;;;;;;7.70;5.63;;;;;;;;;;7327802;19;162394;-16
2022/06/04 05:02:29;;;;;;;6.10;5.40;;;;;;;;;;7327973;19;154086;-16
2022/06/04 05:05:00;;;;;;;6.60;5.38;;;;;;;;;;7327957;19;153665;-16
2022/06/04 05:07:31;;;;;;;6.03;5.40;;;;;;;;;;7327557;19;161883;-16
2022/06/04 05:10:02;;;;;;;6.20;5.15;;;;;;;;;;7327618;19;162438;-16
2022/06/04 05:12:34;;;;;;;8.00;5.70;;;;;;;;;;7327295;19;154054;-16
2022/06/04 05:15:06;;;;;;;6.22;5.35;;;;;;;;;;7327735;19;153633;-16
2022/06/04 05:17:41;;;;;;;6.72;5.30;;;;;;;;;;7327282;19;162010;-16
2022/06/04 05:20:13;;;;;;;6.65;5.43;;;;;;;;;;7325991;19;162774;-16
2022/06/04 05:22:44;;;;;;;6.88;5.30;;;;;;;;;;7327588;19;154191;-16
2022/06/04 05:25:16;;;;;;;6.15;5.50;;;;;;;;;;7330587;19;153519;-16
2022/06/04 05:27:47;;;;;;;6.18;5.10;;;;;;;;;;7337277;19;162565;-16
2022/06/04 05:30:18;;;;;;;7.03;5.95;;;;;;;;;;7334142;19;162529;-16
2022/06/04 05:32:52;;;;;;;5.47;4.97;;;;;;;;;;7333840;19;154029;-16
2022/06/04 05:35:23;;;;;;;6.28;5.43;;;;;;;;;;7334303;19;153842;-16
2022/06/04 05:37:54;;;;;;;6.65;5.32;;;;;;;;;;7333811;19;162079;-16
2022/06/04 05:40:25;;;;;;;7.47;5.53;;;;;;;;;;7333958;19;162344;-17
2022/06/04 05:42:56;;;;;;;6.85;5.72;;;;;;;;;;7333944;19;154081;-16
2022/06/04 05:45:27;;;;;;;6.28;5.53;;;;;;;;;;7333947;19;153669;-16
2022/06/04 05:48:01;;;;;;;7.93;5.90;;;;;;;;;;7333573;19;161967;-19
2022/06/04 05:50:32;;;;;;;6.35;5.43;;;;;;;;;;7332066;19;162462;-17
2022/06/04 05:53:04;;;;;;;6.50;5.43;;;;;;;;;;7333641;19;154052;-16
2022/06/04 05:55:35;;;;;;;7.78;6.00;;;;;;;;;;7333430;19;153566;-16
2022/06/04 05:58:06;;;;;;;7.68;5.20;;;;;;;;;;7333232;19;161895;-16
2022/06/04 06:00:37;;;;;;;8.90;5.40;;;;;;;;;;7331080;19;162465;-16
2022/06/04 06:03:11;;;;;;;7.40;5.45;;;;;;;;;;7333254;19;154290;-16
2022/06/04 06:05:47;;;;;;;10.10;5.70;;;;;;;;;;7333290;19;153493;-16
2022/06/04 06:08:18;;;;;;;9.70;5.88;;;;;;;;;;7331753;19;161935;-16
2022/06/04 06:10:50;;;;;;;5.50;4.90;;;;;;;;;;7332681;19;162590;-17
2022/06/04 06:13:21;;;;;;;8.02;4.88;;;;;;;;;;7332205;19;154064;-17
2022/06/04 06:15:52;;;;;;;6.28;5.15;;;;;;;;;;7332969;19;153491;-16
2022/06/04 06:18:26;;;;;;;6.28;4.97;;;;;;;;;;7331350;19;161872;-16
2022/06/04 06:20:57;;;;;;;5.45;4.93;;;;;;;;;;7332545;19;162529;-17
2022/06/04 06:23:28;;;;;;;7.40;4.75;;;;;;;;;;7332618;19;154045;-16
2022/06/04 06:25:59;;;;;;;6.65;4.65;;;;;;;;;;7332717;19;153584;-15
2022/06/04 06:28:33;;;;;;;7.18;4.97;;;;;;;;;;7332257;19;162052;-16
2022/06/04 06:31:05;;;;;;;7.03;4.80;;;;;;;;;;7331902;19;162370;-16
2022/06/04 06:33:39;;;;;;;5.50;4.93;;;;;;;;;;7331892;19;154002;-15
2022/06/04 06:36:12;;;;;;;8.25;5.03;;;;;;;;;;7331738;19;153580;-15
2022/06/04 06:38:43;;;;;;;6.70;5.00;;;;;;;;;;7331982;19;161788;-15
2022/06/04 06:41:16;;;;;;;5.35;4.85;;;;;;;;;;7331435;19;162423;-15
2022/06/04 06:43:49;;;;;;;6.15;4.63;;;;;;;;;;7332190;19;154089;-15
2022/06/04 06:46:28;;;;;;;6.00;5.10;;;;;;;;;;7331540;19;153663;-21
2022/06/04 06:49:08;;;;;;;5.55;4.80;;;;;;;;;;7331511;19;161845;-18
2022/06/04 06:51:43;;;;;;;5.90;4.32;;;;;;;;;;7331508;19;162408;-15
2022/06/04 06:54:21;;;;;;;6.55;4.75;;;;;;;;;;7330638;19;154049;-18
2022/06/04 06:56:56;;;;;;;4.68;4.25;;;;;;;;;;7331536;19;153523;-15
2022/06/04 06:59:28;;;;;;;7.00;4.00;;;;;;;;;;7330137;19;161957;-15
2022/06/04 07:02:00;;;;;;;7.73;4.20;;;;;;;;;;7331171;19;162599;-15
2022/06/04 07:04:34;;;;;;;7.03;4.40;;;;;;;;;;7331454;19;154039;-15
2022/06/04 07:07:07;;;;;;;7.78;4.70;;;;;;;;;;7335765;19;153820;-15
2022/06/04 07:09:41;;;;;;;5.45;4.10;;;;;;;;;;7330990;19;161852;-17
2022/06/04 07:12:13;;;;;;;7.20;4.50;;;;;;;;;;7330976;19;162477;-17
2022/06/04 07:14:45;;;;;;;4.50;4.07;;;;;;;;;;7329796;19;154069;-18
2022/06/04 07:17:16;;;;;;;5.32;3.85;;;;;;;;;;7331238;19;153606;-17
2022/06/04 07:19:53;;;;;;;4.63;4.07;;;;;;;;;;7330797;19;162096;-16
2022/06/04 07:22:24;;;;;;;8.73;4.32;;;;;;;;;;7330758;19;162387;-17
2022/06/04 07:24:57;;;;;;;5.57;3.85;;;;;;;;;;7331149;19;154028;-17
2022/06/04 07:27:28;;;;;;;10.25;3.92;;;;;;;;;;7331018;19;153593;-17
2022/06/04 07:30:02;;;;;;;5.80;4.50;;;;;;;;;;7330542;19;161967;-17
2022/06/04 07:32:33;;;;;;;7.95;3.95;;;;;;;;;;7330379;19;162513;-17
2022/06/04 07:35:07;;;;;;;5.03;3.85;;;;;;;;;;7328095;19;154279;-17
2022/06/04 07:37:39;;;;;;;5.05;3.75;;;;;;;;;;7330806;19;153579;-18
2022/06/04 07:40:11;;;;;;;5.95;3.40;;;;;;;;;;7330497;19;161911;-16
2022/06/04 07:42:42;;;;;;;;;;;;;;;;;;7330531;19;162503;-15
2022/06/04 07:45:14;;;;;;;4.47;3.95;;;;;;;;;;7330698;19;154104;-17
2022/06/04 07:47:45;;;;;;;10.00;3.85;;;;;;;;;;7328796;19;153528;-17
2022/06/04 07:50:19;;;;;;;13.50;5.22;;;;;;;;;;7330065;19;161992;-17
2022/06/04 07:52:50;;;;;;;9.15;4.13;;;;;;;;;;7328568;19;162482;-16
2022/06/04 07:55:24;;;;;;;4.82;4.07;;;;;;;;;;7331996;19;154067;-17
2022/06/04 07:57:56;;;;;;;6.82;4.22;;;;;;;;;;7330196;19;153511;-17
2022/06/04 08:00:27;;;;;;;5.35;4.00;;;;;;;;;;7328827;19;162015;-16
2022/06/04 08:02:59;;;;;;;7.90;4.07;;;;;;;;;;7329614;19;162608;-17
2022/06/04 08:05:38;;;;;;;8.00;4.00;;;;;;;;;;7329956;19;154349;-16
2022/06/04 08:08:14;;;;;;;7.82;4.20;;;;;;;;;;7329795;19;153449;-17
2022/06/04 08:10:49;;;;;;;5.65;4.07;;;;;;;;;;7329580;19;161969;-17
2022/06/04 08:13:23;;;;;;;6.00;3.95;;;;;;;;;;7329758;19;162500;-17
2022/06/04 08:15:57;;;;;;;8.02;4.43;;;;;;;;;;7327516;19;154118;-16
2022/06/04 08:18:28;;;;;;;5.32;4.20;;;;;;;;;;7329351;19;153927;-17
2022/06/04 08:21:02;;;;;;;9.30;4.50;;;;;;;;;;7328689;19;161989;-17
2022/06/04 08:23:33;;;;;;;5.28;3.97;;;;;;;;;;7328880;19;162576;-17
2022/06/04 08:26:05;;;;;;;7.07;4.05;;;;;;;;;;7329405;19;154411;-16
2022/06/04 08:28:37;;;;;;;8.73;3.83;;;;;;;;;;7329057;19;153567;-15
2022/06/04 08:31:10;;;;;;;10.55;3.80;;;;;;;;;;7328519;19;162248;-15
2022/06/04 08:33:42;;;;;;;7.68;4.32;;;;;;;;;;7328325;19;162553;-16
2022/06/04 08:36:16;;;;;;;4.68;3.90;;;;;;;;;;7326561;19;154401;-16
2022/06/04 08:38:48;;;;;;;8.40;4.47;;;;;;;;;;7328706;19;153611;-16
2022/06/04 08:41:35;;;;;;;6.70;4.22;;;;;;;;;;7328315;19;161917;-16
2022/06/04 08:44:12;;;;;;;7.75;3.95;;;;;;;;;;7328236;19;162323;-16
2022/06/04 08:46:49;;;;;;;6.60;4.47;;;;;;;;;;7328671;19;154022;-16
2022/06/04 08:49:29;;;;;;;8.52;3.80;;;;;;;;;;7328367;19;153635;-16
2022/06/04 08:52:05;;;;;;;7.45;4.63;;;;;;;;;;7326338;19;161758;-17
2022/06/04 09:00:16;;;;;;;5.95;4.07;;;;;;;;;;7332680;19;153812;-16
2022/06/04 09:03:01;;;;;;;5.38;3.50;;;;;;;;;;7334835;19;162026;-18
2022/06/04 09:05:48;;;;;;;7.50;4.47;;;;;;;;;;7334811;19;162625;-16
2022/06/04 09:08:32;;;;;;;5.90;4.15;;;;;;;;;;7334726;19;154683;-16
2022/06/04 09:11:10;;;;;;;9.18;4.45;;;;;;;;;;7339439;19;153052;-17
2022/06/04 09:13:48;;;;;;;6.65;4.13;;;;;;;;;;7334681;19;161828;-17
2022/06/04 09:16:29;;;;;;;6.82;3.83;;;;;;;;;;7332155;19;162373;-17
2022/06/04 09:19:03;;;;;;;6.25;3.78;;;;;;;;;;7333758;19;154303;-17
2022/06/04 09:21:38;;;;;;;7.53;4.45;;;;;;;;;;7334822;19;153621;-17
2022/06/04 09:24:12;;;;;;;6.05;4.45;;;;;;;;;;7334246;19;161785;-17
2022/06/04 09:26:47;;;;;;;6.97;4.30;;;;;;;;;;7333071;19;162442;-16
2022/06/04 09:29:54;;;;;;;9.43;3.88;;;;;;;;;;7334533;19;154273;-17
2022/06/04 09:32:44;;;;;;;6.35;4.10;;;;;;;;;;7334434;19;153531;-16
2022/06/04 09:35:18;;;;;;;5.03;4.00;;;;;;;;;;7333724;19;161823;-17
2022/06/04 09:37:52;;;;;;;6.10;4.15;;;;;;;;;;7333900;19;162506;-17
2022/06/04 09:40:30;;;;;;;5.25;3.80;;;;;;;;;;7334081;19;154087;-17
2022/06/04 09:43:10;;;;;;;5.13;3.83;;;;;;;;;;7333837;19;153511;-18
2022/06/04 09:46:04;;;;;;;4.55;4.10;;;;;;;;;;7333617;19;161959;-18
2022/06/04 09:48:37;;;;;;;6.47;3.70;;;;;;;;;;7333557;19;162653;-15
2022/06/04 09:51:19;;;;;;;6.07;3.50;;;;;;;;;;7333550;19;154093;-16
2022/06/04 09:53:52;;;;;;;4.68;3.60;;;;;;;;;;7331084;19;153555;-17
2022/06/04 09:56:34;;;;;;;4.75;3.47;;;;;;;;;;7332098;19;161975;-17
2022/06/04 09:59:20;;;;;;;6.20;3.63;;;;;;;;;;7336757;19;162401;-18
2022/06/04 10:01:59;;;;;;;5.45;3.92;;;;;;;;;;7333562;19;154141;-17
2022/06/04 10:04:40;;;;;;;4.50;3.17;;;;;;;;;;7333205;19;153539;-18
2022/06/04 10:07:14;;;;;;;6.25;3.67;;;;;;;;;;7331699;19;161815;-16
2022/06/04 10:10:00;;;;;;;6.85;3.60;;;;;;;;;;7332628;19;162527;-16
2022/06/04 10:15:31;;;;;;;3.43;3.13;;;;;;;;;;7331538;19;153560;-17
2022/06/04 10:18:09;;;;;;;4.80;3.40;;;;;;;;;;7332497;19;161940;-16
2022/06/04 10:20:42;;;;;;;5.07;3.08;;;;;;;;;;7332531;19;162483;-16
2022/06/04 10:23:17;;;;;;;7.80;3.20;;;;;;;;;;7331399;19;154076;-16
2022/06/04 10:26:05;;;;;;;6.22;3.33;;;;;;;;;;7332683;19;153525;-15
2022/06/04 10:28:47;;;;;;;3.28;2.95;;;;;;;;;;7332142;19;161763;-16
2022/06/04 10:31:26;;;;;;;6.97;3.20;;;;;;;;;;7332150;19;162496;-15
2022/06/04 10:34:06;;;;;;;4.30;2.97;;;;;;;;;;7330959;19;154070;-16
2022/06/04 10:36:53;;;;;;;5.15;2.72;;;;;;;;;;7333418;19;153522;-16
2022/06/04 10:39:36;;;;;;;7.82;3.50;;;;;;;;;;7331678;19;161789;-16
2022/06/04 10:42:14;;;;;;;9.07;2.80;;;;;;;;;;7331428;19;162384;-17
2022/06/04 10:45:05;;;;;;;8.13;3.00;;;;;;;;;;7332172;19;153989;-16
2022/06/04 10:47:38;;;;;;;13.38;3.22;;;;;;;;;;7331809;19;153545;-17
2022/06/04 10:50:22;;;;;;;6.70;3.00;;;;;;;;;;7331325;19;161974;-16
2022/06/04 10:52:59;;;;;;;13.05;3.03;;;;;;;;;;7329909;19;162464;-16
2022/06/04 10:55:42;;;;;;;6.72;3.40;;;;;;;;;;7331722;19;154014;-16
2022/06/04 10:58:27;;;;;;;7.93;2.88;;;;;;;;;;7328866;19;153634;-15
2022/06/04 11:01:05;;;;;;;5.95;2.78;;;;;;;;;;7331119;19;162998;-16
2022/06/04 11:03:41;;;;;;;5.65;2.70;;;;;;;;;;7330993;19;162291;-16
2022/06/04 11:06:17;;;;;;;5.95;2.92;;;;;;;;;;7331498;19;154008;-16
2022/06/04 11:08:53;;;;;;;7.95;2.88;;;;;;;;;;7331304;19;153452;-17
2022/06/04 11:11:29;;;;;;;3.22;2.92;;;;;;;;;;7335357;19;161819;-16
2022/06/04 11:14:07;;;;;;;4.50;3.10;;;;;;;;;;7331057;19;162527;-17
2022/06/04 11:16:45;;;;;;;6.28;2.88;;;;;;;;;;7330873;19;154110;-17
2022/06/04 11:19:22;;;;;;;6.40;3.08;;;;;;;;;;7331312;19;154236;-18
2022/06/04 11:21:57;;;;;;;7.15;3.30;;;;;;;;;;7329258;19;161769;-17
2022/06/04 11:24:35;;;;;;;5.57;3.05;;;;;;;;;;7330210;19;162340;-17
2022/06/04 11:27:14;;;;;;;3.90;3.20;;;;;;;;;;7330817;19;153975;-17
2022/06/04 11:29:46;;;;;;;6.25;2.72;;;;;;;;;;7329715;19;153452;-21
2022/06/04 11:32:26;;;;;;;3.97;3.25;;;;;;;;;;7330465;19;161933;-16
2022/06/04 11:35:16;;;;;;;5.65;2.85;;;;;;;;;;7330378;19;162382;-16
2022/06/04 11:38:07;;;;;;;7.63;3.55;;;;;;;;;;7328616;19;154069;-16
2022/06/04 11:40:46;;;;;;;3.28;2.65;;;;;;;;;;7330346;19;153544;-17
2022/06/04 11:43:30;;;;;;;4.75;3.50;;;;;;;;;;7328764;19;162085;-22
2022/06/04 11:46:12;;;;;;;4.65;2.80;;;;;;;;;;7329785;19;162401;-16
2022/06/04 11:49:16;;;;;;;4.65;2.95;;;;;;;;;;7330033;19;154073;-18
2022/06/04 11:52:02;;;;;;;5.05;3.22;;;;;;;;;;7329798;19;153304;-16
2022/06/04 11:54:44;;;;;;;4.57;2.72;;;;;;;;;;7328981;19;161824;-16
2022/06/04 11:57:24;;;;;;;5.68;2.72;;;;;;;;;;7328778;19;162437;-17
2022/06/04 12:00:06;;;;;;;6.78;3.00;;;;;;;;;;7329835;19;154122;-16
2022/06/04 12:02:43;;;;;;;6.80;2.92;;;;;;;;;;7329665;19;153526;-16
2022/06/04 12:05:38;;;;;;;6.50;2.90;;;;;;;;;;7332322;19;161862;-16
2022/06/04 12:08:14;;;;;;;5.05;2.72;;;;;;;;;;7329111;19;162417;-17
2022/06/04 12:10:55;;;;;;;6.53;3.28;;;;;;;;;;7328212;19;154101;-16
2022/06/04 12:13:33;;;;;;;6.20;2.90;;;;;;;;;;7328080;19;153830;-17
2022/06/04 12:16:14;;;;;;;5.53;3.15;;;;;;;;;;7328962;19;161829;-17
2022/06/04 12:18:53;;;;;;;4.35;2.60;;;;;;;;;;7326640;19;162398;-16
2022/06/04 12:24:33;;;;;;;3.17;2.60;;;;;;;;;;7329341;19;153463;-16
2022/06/04 12:27:19;;;;;;;5.22;2.85;;;;;;;;;;7328843;19;162046;-17
2022/06/04 12:29:53;;;;;;;4.82;2.83;;;;;;;;;;7328696;19;162451;-17
2022/06/04 12:32:31;;;;;;;3.33;2.38;;;;;;;;;;7327790;19;154071;-17
2022/06/04 12:35:22;;;;;;;3.17;2.47;;;;;;;;;;7332955;19;153641;-16
2022/06/04 12:38:00;;;;;;;4.75;2.88;;;;;;;;;;7334622;19;161795;-17
2022/06/04 12:40:35;;;;;;;4.55;2.50;;;;;;;;;;7335321;19;162814;-17
2022/06/04 12:43:33;;;;;;;4.60;2.63;;;;;;;;;;7335700;19;154037;-17
2022/06/04 12:46:16;;;;;;;4.03;2.65;;;;;;;;;;7335380;19;154025;-16
2022/06/04 12:48:53;;;;;;;;;;;;;;;;;;7335377;19;161808;-17
2022/06/04 12:51:38;;;;;;;3.97;2.78;;;;;;;;;;7335079;19;162772;-16
2022/06/04 12:54:27;;;;;;;5.32;2.97;;;;;;;;;;7335190;19;153994;-17
2022/06/04 12:57:05;;;;;;;4.22;2.92;;;;;;;;;;7335145;19;153521;-18
2022/06/04 12:59:46;;;;;;;3.42;2.80;;;;;;;;;;7332625;19;161948;-18
2022/06/04 13:02:32;;;;;;;3.38;2.55;;;;;;;;;;7334652;19;163660;-17
2022/06/04 13:05:12;;;;;;;5.20;2.60;;;;;;;;;;7335077;19;154128;-18
2022/06/04 13:07:51;;;;;;;2.40;2.15;;;;;;;;;;7333535;19;153632;-18
2022/06/04 13:10:31;;;;;;;2.53;2.33;;;;;;;;;;7334393;19;161818;-18
2022/06/04 13:13:09;;;;;;;3.72;2.38;;;;;;;;;;7334304;19;162629;-17
2022/06/04 13:15:52;;;;;;;3.20;2.72;;;;;;;;;;7334812;19;154378;-17
2022/06/04 13:18:28;;;;;;;2.28;2.08;;;;;;;;;;7333711;19;153582;-16
2022/06/04 13:21:02;;;;;;;3.95;2.30;;;;;;;;;;7334035;19;161914;-17
2022/06/04 13:23:40;;;;;;;3.42;2.15;;;;;;;;;;7334020;19;162291;-17
2022/06/04 13:26:39;;;;;;;2.22;2.05;;;;;;;;;;7334232;19;154091;-17
2022/06/04 13:29:24;;;;;;;2.58;2.38;;;;;;;;;;7334012;19;153805;-17
2022/06/04 13:31:58;;;;;;;2.95;2.30;;;;;;;;;;7332556;19;161923;-17
2022/06/04 13:34:33;;;;;;;3.97;2.10;;;;;;;;;;7333672;19;162563;-17
2022/06/04 13:37:07;;;;;;;2.60;2.40;;;;;;;;;;7333999;19;154134;-24
2022/06/04 13:39:39;;;;;;;2.35;2.15;;;;;;;;;;7334322;19;153514;-17
2022/06/04 13:42:22;;;;;;;7.50;2.10;;;;;;;;;;7333660;19;162333;-17
2022/06/04 13:45:00;;;;;;;3.20;2.17;;;;;;;;;;7336511;19;162410;-17
2022/06/04 13:47:36;;;;;;;6.07;2.70;;;;;;;;;;7333489;19;153990;-18
2022/06/04 13:50:22;;;;;;;3.90;2.20;;;;;;;;;;7332343;19;153514;-18
2022/06/04 13:52:57;;;;;;;2.47;2.28;;;;;;;;;;7331985;19;161821;-17
2022/06/04 13:55:33;;;;;;;3.55;2.45;;;;;;;;;;7333450;19;162480;-17
2022/06/04 13:58:10;;;;;;;3.53;2.50;;;;;;;;;;7333401;19;155365;-17
2022/06/04 14:00:43;;;;;;;3.60;2.13;;;;;;;;;;7333483;19;153846;-17
2022/06/04 14:03:16;;;;;;;2.85;2.20;;;;;;;;;;7333237;19;161769;-18
2022/06/04 14:05:47;;;;;;;2.22;2.08;;;;;;;;;;7333106;19;162549;-17
2022/06/04 14:08:21;;;;;;;3.35;2.42;;;;;;;;;;7332063;19;154133;-18
2022/06/04 14:11:15;;;;;;;3.00;2.42;;;;;;;;;;7333325;19;153560;-18
2022/06/04 14:14:10;;;;;;;3.25;2.00;;;;;;;;;;7331530;19;161847;-17
2022/06/04 14:17:06;;;;;;;2.72;2.05;;;;;;;;;;7332671;19;162804;-17
2022/06/04 14:20:00;;;;;;;3.17;2.30;;;;;;;;;;7331597;19;154023;-17
2022/06/04 14:22:35;;;;;;;;;;;;;;;;;;7333191;19;153842;-16
2022/06/04 14:25:16;;;;;;;2.10;2.00;;;;;;;;;;7332049;19;162108;-17
2022/06/04 14:27:54;;;;;;;2.72;2.20;;;;;;;;;;7332141;19;162550;-17
2022/06/04 14:30:37;;;;;;;2.78;2.13;;;;;;;;;;7332670;19;154119;-16
2022/06/04 14:33:19;;;;;;;2.10;1.90;;;;;;;;;;7331533;19;153498;-17
2022/06/04 14:36:12;;;;;;;1.65;1.55;;;;;;;;;;7331394;19;161871;-17
2022/06/04 14:38:46;;;;;;;4.38;2.10;;;;;;;;;;7331857;19;162560;-16
2022/06/04 14:41:29;;;;;;;2.72;2.15;;;;;;;;;;7332139;19;154144;-17
2022/06/04 14:44:26;;;;;;;2.20;1.75;;;;;;;;;;7332198;19;153599;-17
2022/06/04 14:47:32;;;;;;;3.40;2.15;;;;;;;;;;7331568;19;161764;-17
2022/06/04 14:50:25;;;;;;;2.20;1.85;;;;;;;;;;7331812;19;162401;-17
2022/06/04 14:52:58;;;;;;;2.58;1.80;;;;;;;;;;7330704;19;154033;-19
2022/06/04 14:55:39;;;;;;;2.22;1.80;;;;;;;;;;7332105;19;153685;-17
2022/06/04 14:58:21;;;;;;;2.05;1.60;;;;;;;;;;7331225;19;161872;-17
2022/06/04 15:01:33;;;;;;;2.67;2.03;;;;;;;;;;7328007;19;162718;-17
2022/06/04 15:04:40;;;;;;;1.70;1.60;;;;;;;;;;7334881;19;154012;-17
2022/06/04 15:07:35;;;;;;;2.00;1.80;;;;;;;;;;7329794;19;153819;-17
2022/06/04 15:10:27;;;;;;;7.07;2.00;;;;;;;;;;7331225;19;162075;-17
2022/06/04 15:13:13;;;;;;;3.33;1.70;;;;;;;;;;7331199;19;162529;-17
2022/06/04 15:16:04;;;;;;;2.85;1.80;;;;;;;;;;7331560;19;154312;-17
2022/06/04 15:18:58;;;;;;;3.97;1.80;;;;;;;;;;7331394;19;153623;-17
2022/06/04 15:21:37;;;;;;;2.05;1.85;;;;;;;;;;7331002;19;161755;-17
2022/06/04 15:24:38;;;;;;;1.58;1.48;;;;;;;;;;7330853;19;162434;-17
2022/06/04 15:27:22;;;;;;;2.28;1.63;;;;;;;;;;7331281;19;154166;-17
2022/06/04 15:35:39;;;;;;;2.13;1.90;;;;;;;;;;7330608;19;162390;-17
2022/06/04 15:38:14;;;;;;;2.00;1.80;;;;;;;;;;7329643;19;154444;-17
2022/06/04 15:41:17;;;;;;;1.85;1.73;;;;;;;;;;7328788;19;153510;-17
2022/06/04 15:44:04;;;;;;;1.58;1.48;;;;;;;;;;7329739;19;161805;-17
2022/06/04 15:46:44;;;;;;;1.83;1.73;;;;;;;;;;7330244;19;162643;-17
2022/06/04 15:49:18;;;;;;;1.83;1.73;;;;;;;;;;7330613;19;153973;-17
2022/06/04 15:57:36;;;;;;;2.03;1.92;;;;;;;;;;7330044;19;162465;-17
2022/06/04 16:00:24;;;;;;;2.92;1.80;;;;;;;;;;7329325;19;154035;-17